Weather at Snowtown Airport

Public forecast

Using degrees Celsius for public forecast. Weather courtesy of forecast.io.

Closest aviation weather report (METAR) to Snowtown Airport

Closest report is Whyalla Airport, 61.7 nm (114.3 km) NW. Retrieved 2021/06/25 11:00 UTC (1 hour ago):

YWHA 251100Z AUTO 28006KT 9999 // SCT056 BKN091 11/08 Q1022

Closest aviation forecast (TAF) to Snowtown Airport

Forecast is more than 12 hours old.

Closest forecast is Whyalla Airport, 61.7 nm (114.3 km) NW. Retrieved 2018/11/15 18:03 UTC (3 years ago):

TAF YWHA 151701Z 1518/1608 VRB05KT CAVOK FM152300 18012KT CAVOK FM160200 18018KT CAVOK